createdAt,value
2022-12-25T00:01:27.874Z,1.03
2022-12-25T00:03:58.408Z,0.30
2022-12-25T00:06:30.300Z,0.50
2022-12-25T00:08:59.792Z,0.50
2022-12-25T00:11:29.274Z,0.60
2022-12-25T00:13:58.768Z,0.63
2022-12-25T00:16:30.050Z,0.40
2022-12-25T00:19:01.285Z,0.20
2022-12-25T00:21:33.318Z,0.60
2022-12-25T00:24:03.601Z,0.63
2022-12-25T00:26:33.186Z,0.47
2022-12-25T00:29:02.641Z,0.57
2022-12-25T00:31:32.203Z,0.70
2022-12-25T00:34:01.773Z,0.53
2022-12-25T00:36:37.742Z,0.20
2022-12-25T00:39:10.784Z,0.50
2022-12-25T00:41:57.815Z,0.47
2022-12-25T00:44:27.329Z,0.50
2022-12-25T00:46:56.940Z,0.30
2022-12-25T00:49:26.600Z,0.37
2022-12-25T00:51:57.414Z,0.47
2022-12-25T00:54:30.368Z,0.50
2022-12-25T00:57:02.373Z,0.53
2022-12-25T00:59:33.268Z,0.70
2022-12-25T01:02:17.079Z,0.33
2022-12-25T01:04:46.730Z,0.40
2022-12-25T01:07:17.976Z,0.30
2022-12-25T01:10:05.954Z,0.50
2022-12-25T01:12:36.437Z,0.40
2022-12-25T01:15:06.639Z,0.57
2022-12-25T01:17:36.210Z,0.57
2022-12-25T01:20:06.025Z,0.47
2022-12-25T01:22:36.890Z,0.67
2022-12-25T01:25:07.120Z,0.30
2022-12-25T01:27:36.689Z,0.60
2022-12-25T01:30:06.727Z,0.63
2022-12-25T01:32:36.177Z,0.40
2022-12-25T01:35:05.989Z,1.27
2022-12-25T01:37:36.839Z,0.80
2022-12-25T01:40:06.922Z,0.60
2022-12-25T01:42:36.424Z,0.60
2022-12-25T01:45:24.249Z,0.80
2022-12-25T01:47:53.777Z,0.60
2022-12-25T01:50:23.407Z,0.50
2022-12-25T01:52:54.805Z,0.67
2022-12-25T01:55:24.486Z,0.77
2022-12-25T01:57:57.235Z,0.50
2022-12-25T02:00:26.725Z,0.70
2022-12-25T02:02:56.390Z,0.70
2022-12-25T02:05:28.878Z,1.10
2022-12-25T02:08:01.569Z,0.60
2022-12-25T02:10:31.053Z,0.87
2022-12-25T02:13:00.658Z,0.57
2022-12-25T02:15:35.103Z,0.40
2022-12-25T02:18:09.302Z,0.60
2022-12-25T02:20:53.629Z,1.17
2022-12-25T02:23:37.924Z,0.40
2022-12-25T02:26:16.488Z,0.70
2022-12-25T02:28:52.339Z,0.80
2022-12-25T02:31:24.247Z,1.00
2022-12-25T02:34:05.446Z,1.20
2022-12-25T02:36:37.799Z,0.73
2022-12-25T02:39:28.373Z,0.80
2022-12-25T02:42:01.790Z,0.83
2022-12-25T02:44:50.826Z,0.70
2022-12-25T02:47:40.720Z,0.80
2022-12-25T02:50:28.045Z,0.50
2022-12-25T02:53:16.268Z,0.60
2022-12-25T02:56:04.284Z,0.70
2022-12-25T02:58:51.610Z,1.00
2022-12-25T03:01:42.521Z,1.20
2022-12-25T03:04:31.867Z,0.80
2022-12-25T03:07:06.311Z,0.70
2022-12-25T03:09:55.346Z,0.60
2022-12-25T03:12:29.170Z,0.60
2022-12-25T03:15:16.700Z,0.40
2022-12-25T03:17:47.560Z,0.50
2022-12-25T03:20:34.855Z,0.53
2022-12-25T03:23:23.184Z,0.60
2022-12-25T03:26:10.467Z,0.90
2022-12-25T03:28:39.945Z,0.50
2022-12-25T03:31:13.968Z,0.60
2022-12-25T03:34:11.068Z,0.60
2022-12-25T03:36:45.064Z,0.40
2022-12-25T03:39:32.583Z,0.47
2022-12-25T03:42:26.359Z,0.40
2022-12-25T03:45:17.500Z,0.67
2022-12-25T03:48:06.920Z,0.70
2022-12-25T03:50:57.006Z,0.63
2022-12-25T03:53:45.658Z,0.60
2022-12-25T03:56:47.686Z,1.63
2022-12-25T03:59:37.876Z,0.30
2022-12-25T04:02:25.334Z,0.60
2022-12-25T04:05:12.475Z,0.30
2022-12-25T04:08:00.892Z,0.30
2022-12-25T04:10:48.201Z,0.30
2022-12-25T04:13:35.341Z,0.33
2022-12-25T04:16:22.766Z,0.30
2022-12-25T04:19:14.975Z,0.40
2022-12-25T04:22:02.224Z,0.30
2022-12-25T04:24:50.629Z,0.30
2022-12-25T04:27:37.941Z,0.30
2022-12-25T04:30:25.790Z,0.30
2022-12-25T04:33:16.390Z,0.20
2022-12-25T04:36:06.159Z,0.30
2022-12-25T04:38:35.815Z,0.30
2022-12-25T04:41:06.941Z,0.20
2022-12-25T04:43:36.377Z,0.30
2022-12-25T04:46:06.390Z,0.30
2022-12-25T04:48:36.734Z,0.30
2022-12-25T04:51:13.386Z,0.30
2022-12-25T04:53:42.931Z,0.30
2022-12-25T04:56:14.627Z,0.30
2022-12-25T04:58:44.345Z,0.30
2022-12-25T05:01:13.951Z,0.30
2022-12-25T05:03:43.559Z,0.20
2022-12-25T05:06:13.107Z,0.30
2022-12-25T05:08:42.567Z,0.40
2022-12-25T05:11:13.160Z,0.30
2022-12-25T05:13:44.233Z,0.30
2022-12-25T05:16:15.157Z,0.30
2022-12-25T05:18:44.682Z,0.30
2022-12-25T05:21:14.513Z,0.40
2022-12-25T05:23:48.681Z,0.57
2022-12-25T05:26:19.387Z,0.30
2022-12-25T05:28:50.232Z,0.30
2022-12-25T05:31:20.286Z,0.40
2022-12-25T05:33:53.252Z,0.30
2022-12-25T05:36:22.930Z,0.40
2022-12-25T05:38:52.453Z,0.77
2022-12-25T05:41:22.051Z,0.60
2022-12-25T05:43:53.929Z,0.50
2022-12-25T05:46:23.869Z,0.90
2022-12-25T05:48:53.405Z,0.43
2022-12-25T05:51:22.908Z,0.30
2022-12-25T05:53:52.416Z,0.40
2022-12-25T05:56:21.909Z,0.40
2022-12-25T05:58:52.754Z,0.63
2022-12-25T06:01:22.909Z,0.40
2022-12-25T06:03:52.547Z,0.70
2022-12-25T06:06:22.309Z,0.40
2022-12-25T06:08:51.886Z,0.67
2022-12-25T06:11:21.371Z,0.40
2022-12-25T06:13:53.070Z,0.40
2022-12-25T06:16:22.569Z,0.40
2022-12-25T06:18:54.162Z,0.50
2022-12-25T06:21:23.806Z,0.40
2022-12-25T06:23:53.298Z,0.47
2022-12-25T06:26:22.803Z,0.50
2022-12-25T06:28:56.651Z,0.40
2022-12-25T06:31:26.192Z,0.30
2022-12-25T06:33:55.694Z,0.50
2022-12-25T06:36:26.052Z,0.50
2022-12-25T06:38:55.827Z,0.57
2022-12-25T06:41:25.981Z,0.40
2022-12-25T06:43:57.876Z,0.60
2022-12-25T06:46:28.498Z,0.50
2022-12-25T06:48:58.786Z,0.97
2022-12-25T06:51:29.051Z,0.30
2022-12-25T06:53:58.816Z,0.40
2022-12-25T06:56:28.992Z,0.30
2022-12-25T06:59:00.838Z,0.60
2022-12-25T07:01:31.748Z,0.40
2022-12-25T07:04:03.138Z,0.53
2022-12-25T07:06:32.714Z,0.30
2022-12-25T07:09:02.204Z,0.40
2022-12-25T07:11:31.668Z,0.40
2022-12-25T07:14:02.574Z,0.30
2022-12-25T07:16:32.202Z,0.30
2022-12-25T07:19:01.871Z,0.40
2022-12-25T07:21:31.394Z,0.57
2022-12-25T07:24:01.382Z,0.50
2022-12-25T07:26:30.822Z,0.30
2022-12-25T07:29:01.627Z,0.40
2022-12-25T07:31:31.162Z,0.30
2022-12-25T07:34:00.660Z,0.40
2022-12-25T07:36:30.574Z,0.50
2022-12-25T07:39:00.151Z,0.30
2022-12-25T07:41:30.238Z,0.50
2022-12-25T07:44:17.502Z,0.40
2022-12-25T07:46:47.216Z,0.97
2022-12-25T07:49:16.684Z,0.57
2022-12-25T07:51:46.075Z,0.30
2022-12-25T07:54:15.493Z,0.20
2022-12-25T07:56:44.957Z,0.30
2022-12-25T07:59:14.433Z,0.63
2022-12-25T08:01:45.533Z,0.30
2022-12-25T08:04:15.157Z,0.30
2022-12-25T08:06:44.633Z,0.30
2022-12-25T08:09:14.676Z,0.30
2022-12-25T08:11:46.855Z,0.30
2022-12-25T08:14:16.835Z,0.30
2022-12-25T08:16:47.937Z,0.30
2022-12-25T08:19:17.493Z,0.40
2022-12-25T08:21:47.114Z,0.40
2022-12-25T08:24:16.959Z,0.20
2022-12-25T08:26:46.427Z,0.30
2022-12-25T08:29:15.911Z,0.53
2022-12-25T08:31:46.636Z,0.50
2022-12-25T08:34:17.633Z,0.60
2022-12-25T08:36:47.088Z,0.20
2022-12-25T08:39:16.566Z,0.30
2022-12-25T08:41:46.063Z,0.30
2022-12-25T08:44:15.712Z,0.40
2022-12-25T08:46:45.380Z,0.30
2022-12-25T08:49:14.889Z,0.40
2022-12-25T08:51:47.098Z,0.40
2022-12-25T08:54:16.765Z,0.50
2022-12-25T08:56:46.207Z,0.40
2022-12-25T08:59:15.654Z,0.47
2022-12-25T09:01:45.305Z,0.50
2022-12-25T09:04:14.875Z,0.40
2022-12-25T09:06:44.872Z,0.30
2022-12-25T09:09:22.815Z,0.40
2022-12-25T09:11:52.390Z,0.30
2022-12-25T09:14:21.923Z,0.27
2022-12-25T09:16:51.994Z,0.40
2022-12-25T09:19:22.135Z,0.40
2022-12-25T09:21:51.651Z,0.40
2022-12-25T09:24:28.061Z,0.30
2022-12-25T09:26:57.513Z,0.30
2022-12-25T09:29:27.010Z,0.30
2022-12-25T09:31:56.479Z,0.50
2022-12-25T09:34:26.029Z,0.20
2022-12-25T09:36:55.529Z,0.40
2022-12-25T09:39:26.391Z,0.30
2022-12-25T09:41:56.933Z,0.30
2022-12-25T09:44:27.641Z,0.20
2022-12-25T09:46:58.836Z,0.20
2022-12-25T09:49:34.803Z,0.30
2022-12-25T09:52:07.184Z,0.20
2022-12-25T09:54:43.683Z,0.40
2022-12-25T09:57:13.579Z,0.53
2022-12-25T09:59:44.672Z,0.20
2022-12-25T10:02:33.198Z,0.30
2022-12-25T10:05:07.738Z,0.30
2022-12-25T10:07:41.353Z,0.30
2022-12-25T10:10:21.319Z,0.30
2022-12-25T10:12:54.731Z,0.40
2022-12-25T10:15:31.460Z,0.30
2022-12-25T10:18:05.520Z,0.30
2022-12-25T10:20:42.218Z,0.30
2022-12-25T10:23:14.713Z,0.20
2022-12-25T10:25:47.082Z,0.47
2022-12-25T10:28:21.508Z,0.30
2022-12-25T10:30:52.246Z,0.40
2022-12-25T10:33:22.431Z,0.30
2022-12-25T10:35:52.015Z,0.30
2022-12-25T10:38:22.053Z,0.40
2022-12-25T10:41:02.612Z,0.63
2022-12-25T10:43:37.446Z,0.67
2022-12-25T10:46:11.256Z,0.30
2022-12-25T10:48:42.846Z,0.40
2022-12-25T10:51:12.368Z,0.70
2022-12-25T10:53:42.743Z,0.50
2022-12-25T10:56:17.999Z,0.40
2022-12-25T10:58:47.493Z,0.30
2022-12-25T11:01:17.029Z,0.40
2022-12-25T11:03:48.345Z,0.60
2022-12-25T11:06:23.805Z,0.60
2022-12-25T11:08:55.569Z,0.30
2022-12-25T11:11:26.585Z,0.37
2022-12-25T11:13:58.676Z,0.30
2022-12-25T11:16:29.888Z,0.40
2022-12-25T11:19:00.146Z,0.30
2022-12-25T11:21:30.705Z,0.33
2022-12-25T11:24:01.333Z,0.30
2022-12-25T11:26:33.248Z,0.30
2022-12-25T11:29:02.798Z,0.60
2022-12-25T11:31:38.155Z,0.70
2022-12-25T11:34:09.380Z,0.37
2022-12-25T11:36:45.355Z,0.30
2022-12-25T11:39:20.090Z,0.40
2022-12-25T11:41:52.637Z,0.40
2022-12-25T11:44:27.776Z,0.63
2022-12-25T11:46:57.952Z,0.80
2022-12-25T11:49:27.592Z,0.33
2022-12-25T11:51:57.400Z,0.30
2022-12-25T11:54:29.670Z,0.50
2022-12-25T11:57:02.170Z,0.30
2022-12-25T11:59:34.049Z,0.30
2022-12-25T12:02:05.566Z,0.50
2022-12-25T12:04:42.753Z,0.40
2022-12-25T12:07:18.796Z,0.30
2022-12-25T12:09:50.797Z,0.60
2022-12-25T12:12:24.176Z,0.80
2022-12-25T12:14:55.661Z,0.30
2022-12-25T12:17:25.305Z,0.37
2022-12-25T12:19:54.825Z,0.20
2022-12-25T12:22:25.721Z,0.30
2022-12-25T12:24:57.739Z,0.30
2022-12-25T12:27:33.195Z,0.30
2022-12-25T12:30:02.821Z,0.53
2022-12-25T12:32:39.573Z,0.77
2022-12-25T12:35:10.989Z,0.30
2022-12-25T12:37:41.380Z,0.30
2022-12-25T12:40:25.378Z,0.50
2022-12-25T12:42:56.480Z,0.20
2022-12-25T12:45:27.941Z,0.40
2022-12-25T12:47:57.607Z,0.20
2022-12-25T12:50:32.242Z,0.20
2022-12-25T12:53:05.660Z,0.20
2022-12-25T12:55:35.982Z,0.20
2022-12-25T12:58:07.817Z,0.30
2022-12-25T13:00:41.249Z,0.30
2022-12-25T13:03:27.339Z,0.50
2022-12-25T13:05:59.786Z,0.40
2022-12-25T13:08:39.790Z,0.40
2022-12-25T13:11:14.506Z,0.30
2022-12-25T13:13:46.439Z,0.50
2022-12-25T13:16:18.746Z,0.40
2022-12-25T13:18:54.532Z,0.33
2022-12-25T13:21:24.734Z,0.50
2022-12-25T13:23:58.396Z,0.30
2022-12-25T13:26:27.989Z,0.47
2022-12-25T13:28:59.062Z,0.50
2022-12-25T13:31:29.337Z,0.40
2022-12-25T13:33:59.709Z,0.63
2022-12-25T13:36:30.384Z,0.30
2022-12-25T13:39:00.698Z,0.50
2022-12-25T13:41:53.862Z,0.30
2022-12-25T13:44:26.688Z,0.30
2022-12-25T13:46:56.225Z,0.20
2022-12-25T13:49:26.104Z,0.30
2022-12-25T13:52:05.090Z,0.30
2022-12-25T13:54:34.587Z,0.50
2022-12-25T13:57:04.356Z,0.30
2022-12-25T13:59:35.444Z,0.30
2022-12-25T14:02:05.557Z,0.30
2022-12-25T14:04:45.288Z,0.40
2022-12-25T14:07:20.357Z,0.40
2022-12-25T14:09:50.348Z,0.20
2022-12-25T14:12:19.847Z,0.20
2022-12-25T14:14:51.332Z,0.20
2022-12-25T14:17:21.219Z,0.20
2022-12-25T14:20:02.366Z,0.30
2022-12-25T14:22:38.693Z,0.30
2022-12-25T14:25:15.986Z,0.30
2022-12-25T14:27:50.093Z,0.20
2022-12-25T14:30:21.208Z,0.30
2022-12-25T14:32:51.932Z,0.20
2022-12-25T14:35:23.700Z,0.20
2022-12-25T14:38:00.056Z,0.20
2022-12-25T14:40:31.542Z,0.30
2022-12-25T14:43:01.826Z,0.20
2022-12-25T14:45:33.691Z,0.20
2022-12-25T14:48:04.397Z,0.20
2022-12-25T14:50:36.509Z,0.20
2022-12-25T14:53:06.705Z,0.20
2022-12-25T14:55:36.196Z,0.57
2022-12-25T14:58:08.083Z,0.30
2022-12-25T15:00:39.649Z,0.30
2022-12-25T15:03:19.037Z,0.30
2022-12-25T15:05:59.205Z,0.50
2022-12-25T15:08:29.161Z,0.20
2022-12-25T15:11:01.865Z,0.20
2022-12-25T15:13:32.636Z,0.30
2022-12-25T15:16:07.838Z,0.20
2022-12-25T15:18:39.376Z,0.30
2022-12-25T15:21:09.029Z,0.20
2022-12-25T15:23:38.561Z,0.20
2022-12-25T15:26:08.057Z,0.20
2022-12-25T15:28:37.550Z,0.20
2022-12-25T15:31:16.213Z,0.20
2022-12-25T15:33:45.738Z,0.20
2022-12-25T15:36:15.346Z,0.20
2022-12-25T15:38:44.908Z,0.20
2022-12-25T15:41:36.719Z,0.30
2022-12-25T15:44:07.193Z,0.30
2022-12-25T15:46:38.558Z,0.20
2022-12-25T15:49:08.090Z,0.20
2022-12-25T15:51:37.804Z,0.20
2022-12-25T15:54:07.311Z,0.30
2022-12-25T15:56:41.450Z,0.20
2022-12-25T15:59:11.440Z,0.20
2022-12-25T16:01:43.935Z,0.30
2022-12-25T16:04:13.525Z,0.20
2022-12-25T16:06:43.311Z,0.23
2022-12-25T16:09:13.429Z,0.20
2022-12-25T16:11:43.304Z,0.20
2022-12-25T16:14:12.812Z,0.20
2022-12-25T16:16:43.920Z,0.20
2022-12-25T16:19:13.432Z,0.20
2022-12-25T16:21:43.970Z,0.30
2022-12-25T16:24:13.670Z,0.30
2022-12-25T16:26:43.308Z,0.30
2022-12-25T16:29:13.065Z,0.30
2022-12-25T16:31:44.030Z,0.40
2022-12-25T16:34:13.603Z,0.30
2022-12-25T16:36:43.102Z,0.20
2022-12-25T16:39:12.563Z,0.20
2022-12-25T16:41:42.017Z,0.40
2022-12-25T16:44:12.008Z,0.30
2022-12-25T16:46:42.119Z,0.30
2022-12-25T16:49:13.077Z,0.40
2022-12-25T16:51:42.561Z,0.30
2022-12-25T16:54:12.104Z,0.20
2022-12-25T16:56:41.583Z,0.20
2022-12-25T16:59:11.093Z,0.20
2022-12-25T17:01:43.363Z,0.30
2022-12-25T17:04:14.657Z,0.30
2022-12-25T17:06:44.200Z,0.27
2022-12-25T17:09:13.708Z,0.20
2022-12-25T17:11:43.245Z,0.23
2022-12-25T17:14:12.791Z,0.23
2022-12-25T17:16:42.541Z,0.20
2022-12-25T17:19:18.254Z,0.20
2022-12-25T17:21:48.035Z,0.20
2022-12-25T17:24:17.589Z,0.20
2022-12-25T17:26:47.076Z,0.20
2022-12-25T17:29:21.608Z,0.20
2022-12-25T17:31:51.786Z,0.20
2022-12-25T17:34:22.834Z,0.20
2022-12-25T17:36:52.796Z,0.20
2022-12-25T17:39:22.268Z,0.30
2022-12-25T17:41:51.915Z,0.20
2022-12-25T17:44:22.084Z,0.20
2022-12-25T17:46:52.493Z,0.20
2022-12-25T17:49:23.658Z,0.30
2022-12-25T17:51:53.170Z,0.20
2022-12-25T17:54:22.610Z,0.20
2022-12-25T17:56:52.122Z,0.30
2022-12-25T17:59:28.307Z,0.20
2022-12-25T18:01:57.941Z,0.20
2022-12-25T18:04:28.898Z,0.20
2022-12-25T18:06:58.464Z,0.20
2022-12-25T18:09:27.971Z,0.20
2022-12-25T18:11:57.558Z,0.30
2022-12-25T18:14:27.157Z,0.20
2022-12-25T18:16:57.264Z,0.30
2022-12-25T18:19:26.807Z,0.30
2022-12-25T18:21:57.951Z,0.20
2022-12-25T18:24:27.441Z,0.30
2022-12-25T18:26:56.946Z,0.20
2022-12-25T18:29:26.435Z,0.20
2022-12-25T18:31:56.008Z,0.20
2022-12-25T18:34:25.477Z,0.20
2022-12-25T18:36:58.326Z,0.23
2022-12-25T18:39:29.200Z,0.20
2022-12-25T18:42:16.181Z,0.20
2022-12-25T18:44:46.068Z,0.20
2022-12-25T18:47:15.681Z,0.20
2022-12-25T18:49:45.196Z,0.20
2022-12-25T18:52:48.081Z,0.30
2022-12-25T18:55:05.696Z,0.30
2022-12-25T18:57:35.375Z,0.20
2022-12-25T19:00:05.516Z,0.20
2022-12-25T19:02:35.149Z,0.30
2022-12-25T19:05:05.883Z,0.20
2022-12-25T19:07:35.407Z,0.20
2022-12-25T19:10:07.076Z,0.30
2022-12-25T19:12:36.591Z,0.30
2022-12-25T19:15:06.531Z,0.20
2022-12-25T19:17:36.081Z,0.20
2022-12-25T19:20:06.847Z,0.20
2022-12-25T19:22:36.521Z,0.20
2022-12-25T19:25:08.159Z,0.20
2022-12-25T19:27:37.688Z,0.20
2022-12-25T19:30:08.461Z,0.20
2022-12-25T19:32:37.979Z,0.20
2022-12-25T19:35:08.053Z,0.20
2022-12-25T19:37:37.537Z,0.20
2022-12-25T19:40:09.234Z,0.20
2022-12-25T19:42:38.977Z,0.30
2022-12-25T19:45:09.007Z,0.20
2022-12-25T19:47:38.542Z,0.30
2022-12-25T19:50:08.702Z,0.20
2022-12-25T19:52:38.204Z,0.20
2022-12-25T19:55:09.762Z,0.20
2022-12-25T19:57:40.095Z,0.30
2022-12-25T20:00:10.736Z,0.20
2022-12-25T20:02:43.048Z,0.20
2022-12-25T20:05:12.693Z,0.30
2022-12-25T20:07:42.291Z,0.23
2022-12-25T20:10:13.292Z,0.20
2022-12-25T20:12:42.793Z,0.20
2022-12-25T20:15:12.847Z,0.20
2022-12-25T20:17:42.372Z,0.20
2022-12-25T20:20:15.054Z,0.30
2022-12-25T20:22:44.598Z,0.30
2022-12-25T20:25:15.421Z,0.20
2022-12-25T20:27:44.944Z,0.20
2022-12-25T20:30:15.015Z,0.20
2022-12-25T20:32:50.057Z,0.30
2022-12-25T20:35:20.146Z,0.20
2022-12-25T20:37:49.647Z,0.20
2022-12-25T20:40:20.545Z,0.20
2022-12-25T20:42:50.012Z,0.20
2022-12-25T20:45:19.487Z,0.20
2022-12-25T20:47:48.989Z,0.20
2022-12-25T20:50:18.459Z,0.20
2022-12-25T20:52:48.354Z,0.20
2022-12-25T20:55:17.859Z,0.20
2022-12-25T20:57:48.740Z,0.20
2022-12-25T21:00:19.157Z,0.23
2022-12-25T21:02:48.783Z,0.20
2022-12-25T21:05:18.519Z,0.30
2022-12-25T21:07:48.030Z,0.30
2022-12-25T21:10:17.615Z,0.20
2022-12-25T21:12:47.113Z,0.20
2022-12-25T21:15:18.122Z,0.20
2022-12-25T21:17:47.649Z,0.20
2022-12-25T21:20:17.341Z,0.20
2022-12-25T21:22:47.087Z,0.20
2022-12-25T21:25:16.681Z,0.20
2022-12-25T21:27:46.184Z,0.30
2022-12-25T21:30:16.097Z,0.20
2022-12-25T21:33:04.824Z,0.20
2022-12-25T21:35:37.698Z,0.30
2022-12-25T21:38:07.289Z,0.20
2022-12-25T21:40:37.679Z,0.20
2022-12-25T21:43:07.578Z,0.20
2022-12-25T21:45:37.072Z,0.20
2022-12-25T21:48:08.225Z,0.20
2022-12-25T21:51:07.799Z,0.20
2022-12-25T21:53:37.301Z,0.30
2022-12-25T21:56:07.026Z,0.20
2022-12-25T21:58:36.560Z,0.20
2022-12-25T22:01:07.725Z,0.20
2022-12-25T22:03:39.090Z,0.20
2022-12-25T22:06:26.339Z,0.20
2022-12-25T22:08:57.010Z,0.20
2022-12-25T22:11:44.322Z,0.20
2022-12-25T22:14:52.715Z,0.20
2022-12-25T22:17:41.463Z,0.20
2022-12-25T22:20:13.575Z,0.20
2022-12-25T22:22:43.123Z,0.20
2022-12-25T22:25:13.396Z,0.20
2022-12-25T22:27:43.427Z,0.20
2022-12-25T22:30:13.960Z,0.20
2022-12-25T22:32:43.535Z,0.20
2022-12-25T22:35:14.674Z,0.20
2022-12-25T22:37:44.643Z,0.20
2022-12-25T22:40:15.229Z,0.20
2022-12-25T22:42:44.758Z,0.20
2022-12-25T22:45:14.640Z,0.20
2022-12-25T22:47:44.223Z,0.20
2022-12-25T22:50:15.787Z,0.20
2022-12-25T22:52:46.577Z,0.20
2022-12-25T22:55:18.338Z,0.20
2022-12-25T22:57:49.015Z,0.20
2022-12-25T23:00:18.609Z,0.20
2022-12-25T23:02:48.213Z,0.20
2022-12-25T23:05:19.479Z,0.20
2022-12-25T23:07:49.032Z,0.20
2022-12-25T23:10:18.609Z,0.20
2022-12-25T23:13:05.648Z,0.20
2022-12-25T23:15:35.379Z,0.20
2022-12-25T23:18:18.959Z,0.20
2022-12-25T23:21:08.964Z,0.20
2022-12-25T23:23:55.906Z,0.20
2022-12-25T23:26:25.415Z,0.20
2022-12-25T23:29:12.464Z,0.20
2022-12-25T23:31:42.755Z,0.20
2022-12-25T23:34:12.662Z,0.20
2022-12-25T23:36:43.495Z,0.30
2022-12-25T23:39:12.997Z,0.20
2022-12-25T23:41:42.987Z,0.20
2022-12-25T23:44:13.394Z,0.20
2022-12-25T23:46:52.394Z,0.20
2022-12-25T23:49:23.273Z,0.20
2022-12-25T23:51:54.178Z,0.20
2022-12-25T23:54:24.555Z,0.20
2022-12-25T23:56:54.282Z,0.30
2022-12-25T23:59:23.748Z,0.20
